sensor_id;sensor_type;location;lat;lon;timestamp;P1;durP1;ratioP1;P2;durP2;ratioP2
29776;SDS011;16677;52.224;7.484;2023-03-01T00:13:50;12.93;;;8.97;;
29776;SDS011;16677;52.224;7.484;2023-03-01T00:16:21;11.47;;;9.17;;
29776;SDS011;16677;52.224;7.484;2023-03-01T00:19:00;11.60;;;9.67;;
29776;SDS011;16677;52.224;7.484;2023-03-01T00:21:28;14.57;;;10.13;;
29776;SDS011;16677;52.224;7.484;2023-03-01T00:23:56;14.53;;;11.27;;
29776;SDS011;16677;52.224;7.484;2023-03-01T00:26:24;14.37;;;11.10;;
29776;SDS011;16677;52.224;7.484;2023-03-01T00:28:53;13.40;;;11.03;;
29776;SDS011;16677;52.224;7.484;2023-03-01T00:31:25;12.93;;;11.50;;
29776;SDS011;16677;52.224;7.484;2023-03-01T00:33:56;14.13;;;11.17;;
29776;SDS011;16677;52.224;7.484;2023-03-01T00:36:27;14.17;;;11.43;;
29776;SDS011;16677;52.224;7.484;2023-03-01T00:38:58;17.50;;;11.13;;
29776;SDS011;16677;52.224;7.484;2023-03-01T00:41:26;16.37;;;11.97;;
29776;SDS011;16677;52.224;7.484;2023-03-01T00:43:54;13.87;;;11.90;;
29776;SDS011;16677;52.224;7.484;2023-03-01T00:46:25;16.50;;;12.63;;
29776;SDS011;16677;52.224;7.484;2023-03-01T00:48:54;15.87;;;12.60;;
29776;SDS011;16677;52.224;7.484;2023-03-01T00:51:25;14.83;;;12.40;;
29776;SDS011;16677;52.224;7.484;2023-03-01T00:53:55;15.67;;;12.10;;
29776;SDS011;16677;52.224;7.484;2023-03-01T00:56:26;15.02;;;13.52;;
29776;SDS011;16677;52.224;7.484;2023-03-01T00:58:54;14.70;;;13.00;;
29776;SDS011;16677;52.224;7.484;2023-03-01T01:01:23;14.00;;;11.70;;
29776;SDS011;16677;52.224;7.484;2023-03-01T01:04:01;14.50;;;12.07;;
29776;SDS011;16677;52.224;7.484;2023-03-01T01:06:36;16.43;;;12.63;;
29776;SDS011;16677;52.224;7.484;2023-03-01T01:09:10;14.00;;;12.10;;
29776;SDS011;16677;52.224;7.484;2023-03-01T01:11:47;17.30;;;13.10;;
29776;SDS011;16677;52.224;7.484;2023-03-01T01:16:51;15.90;;;11.90;;
29776;SDS011;16677;52.224;7.484;2023-03-01T01:19:18;16.77;;;15.07;;
29776;SDS011;16677;52.224;7.484;2023-03-01T01:21:46;17.77;;;15.98;;
29776;SDS011;16677;52.224;7.484;2023-03-01T01:24:14;17.33;;;14.13;;
29776;SDS011;16677;52.224;7.484;2023-03-01T01:26:42;18.67;;;13.80;;
29776;SDS011;16677;52.224;7.484;2023-03-01T01:29:10;14.87;;;11.60;;
29776;SDS011;16677;52.224;7.484;2023-03-01T01:31:39;15.07;;;12.20;;
29776;SDS011;16677;52.224;7.484;2023-03-01T01:34:09;17.60;;;12.67;;
29776;SDS011;16677;52.224;7.484;2023-03-01T01:36:54;16.27;;;12.30;;
29776;SDS011;16677;52.224;7.484;2023-03-01T01:39:21;16.80;;;12.83;;
29776;SDS011;16677;52.224;7.484;2023-03-01T01:41:49;17.37;;;13.53;;
29776;SDS011;16677;52.224;7.484;2023-03-01T01:49:29;17.50;;;15.43;;
29776;SDS011;16677;52.224;7.484;2023-03-01T01:55:11;16.57;;;13.47;;
29776;SDS011;16677;52.224;7.484;2023-03-01T01:57:47;17.45;;;15.57;;
29776;SDS011;16677;52.224;7.484;2023-03-01T02:00:21;16.73;;;15.13;;
29776;SDS011;16677;52.224;7.484;2023-03-01T02:03:36;17.07;;;13.47;;
29776;SDS011;16677;52.224;7.484;2023-03-01T02:05:53;19.50;;;12.30;;
29776;SDS011;16677;52.224;7.484;2023-03-01T02:08:30;16.40;;;14.80;;
29776;SDS011;16677;52.224;7.484;2023-03-01T02:11:02;16.42;;;14.82;;
29776;SDS011;16677;52.224;7.484;2023-03-01T02:13:32;18.73;;;15.13;;
29776;SDS011;16677;52.224;7.484;2023-03-01T02:16:04;17.77;;;16.00;;
29776;SDS011;16677;52.224;7.484;2023-03-01T02:18:35;18.40;;;16.50;;
29776;SDS011;16677;52.224;7.484;2023-03-01T02:24:17;18.00;;;16.15;;
29776;SDS011;16677;52.224;7.484;2023-03-01T02:27:16;18.27;;;16.38;;
29776;SDS011;16677;52.224;7.484;2023-03-01T02:29:51;17.60;;;15.80;;
29776;SDS011;16677;52.224;7.484;2023-03-01T02:32:18;16.63;;;14.70;;
29776;SDS011;16677;52.224;7.484;2023-03-01T02:34:54;18.93;;;14.07;;
29776;SDS011;16677;52.224;7.484;2023-03-01T02:37:22;16.63;;;13.73;;
29776;SDS011;16677;52.224;7.484;2023-03-01T02:39:58;16.70;;;13.43;;
29776;SDS011;16677;52.224;7.484;2023-03-01T02:42:31;15.00;;;13.23;;
29776;SDS011;16677;52.224;7.484;2023-03-01T02:45:03;16.43;;;13.57;;
29776;SDS011;16677;52.224;7.484;2023-03-01T02:47:31;20.13;;;13.90;;
29776;SDS011;16677;52.224;7.484;2023-03-01T02:49:59;17.77;;;15.88;;
29776;SDS011;16677;52.224;7.484;2023-03-01T02:55:18;18.25;;;16.45;;
29776;SDS011;16677;52.224;7.484;2023-03-01T02:57:46;16.17;;;14.37;;
29776;SDS011;16677;52.224;7.484;2023-03-01T03:00:24;18.13;;;13.70;;
29776;SDS011;16677;52.224;7.484;2023-03-01T03:02:59;18.02;;;16.13;;
29776;SDS011;16677;52.224;7.484;2023-03-01T03:05:27;18.58;;;16.67;;
29776;SDS011;16677;52.224;7.484;2023-03-01T03:07:58;19.07;;;14.97;;
29776;SDS011;16677;52.224;7.484;2023-03-01T03:10:29;16.33;;;13.50;;
29776;SDS011;16677;52.224;7.484;2023-03-01T03:13:08;22.40;;;14.50;;
29776;SDS011;16677;52.224;7.484;2023-03-01T03:15:38;18.63;;;16.55;;
29776;SDS011;16677;52.224;7.484;2023-03-01T03:18:09;18.85;;;16.92;;
29776;SDS011;16677;52.224;7.484;2023-03-01T03:20:40;19.27;;;15.30;;
29776;SDS011;16677;52.224;7.484;2023-03-01T03:23:09;17.80;;;16.00;;
29776;SDS011;16677;52.224;7.484;2023-03-01T03:25:36;18.37;;;15.10;;
29776;SDS011;16677;52.224;7.484;2023-03-01T03:28:04;17.93;;;14.43;;
29776;SDS011;16677;52.224;7.484;2023-03-01T03:30:37;19.93;;;14.90;;
29776;SDS011;16677;52.224;7.484;2023-03-01T03:33:07;18.10;;;13.60;;
29776;SDS011;16677;52.224;7.484;2023-03-01T03:35:42;19.65;;;17.50;;
29776;SDS011;16677;52.224;7.484;2023-03-01T03:38:15;19.80;;;17.70;;
29776;SDS011;16677;52.224;7.484;2023-03-01T03:40:52;19.95;;;17.85;;
29776;SDS011;16677;52.224;7.484;2023-03-01T03:43:35;19.77;;;17.73;;
29776;SDS011;16677;52.224;7.484;2023-03-01T03:46:04;19.03;;;16.53;;
29776;SDS011;16677;52.224;7.484;2023-03-01T03:48:36;21.07;;;17.03;;
29776;SDS011;16677;52.224;7.484;2023-03-01T03:51:09;20.43;;;16.73;;
29776;SDS011;16677;52.224;7.484;2023-03-01T03:53:42;21.50;;;15.97;;
29776;SDS011;16677;52.224;7.484;2023-03-01T03:56:11;21.42;;;19.17;;
29776;SDS011;16677;52.224;7.484;2023-03-01T03:58:39;21.67;;;19.38;;
29776;SDS011;16677;52.224;7.484;2023-03-01T04:01:06;19.70;;;16.20;;
29776;SDS011;16677;52.224;7.484;2023-03-01T04:03:34;20.80;;;15.40;;
29776;SDS011;16677;52.224;7.484;2023-03-01T04:06:02;22.33;;;16.07;;
29776;SDS011;16677;52.224;7.484;2023-03-01T04:08:30;19.33;;;17.40;;
29776;SDS011;16677;52.224;7.484;2023-03-01T04:10:59;20.38;;;18.27;;
29776;SDS011;16677;52.224;7.484;2023-03-01T04:13:47;18.10;;;14.50;;
29776;SDS011;16677;52.224;7.484;2023-03-01T04:16:15;20.23;;;16.00;;
29776;SDS011;16677;52.224;7.484;2023-03-01T04:18:44;19.17;;;15.73;;
29776;SDS011;16677;52.224;7.484;2023-03-01T04:21:12;20.00;;;17.40;;
29776;SDS011;16677;52.224;7.484;2023-03-01T04:23:40;20.10;;;15.33;;
29776;SDS011;16677;52.224;7.484;2023-03-01T04:26:07;18.37;;;15.07;;
29776;SDS011;16677;52.224;7.484;2023-03-01T04:28:41;20.13;;;14.43;;
29776;SDS011;16677;52.224;7.484;2023-03-01T04:31:17;16.83;;;13.80;;
29776;SDS011;16677;52.224;7.484;2023-03-01T04:33:51;19.48;;;17.48;;
29776;SDS011;16677;52.224;7.484;2023-03-01T04:36:24;20.90;;;18.75;;
29776;SDS011;16677;52.224;7.484;2023-03-01T04:38:55;20.80;;;18.70;;
29776;SDS011;16677;52.224;7.484;2023-03-01T04:41:23;21.97;;;16.50;;
29776;SDS011;16677;52.224;7.484;2023-03-01T04:43:51;19.33;;;16.03;;
29776;SDS011;16677;52.224;7.484;2023-03-01T04:46:19;20.97;;;15.13;;
29776;SDS011;16677;52.224;7.484;2023-03-01T04:48:52;18.10;;;14.63;;
29776;SDS011;16677;52.224;7.484;2023-03-01T04:51:19;21.53;;;18.50;;
29776;SDS011;16677;52.224;7.484;2023-03-01T04:53:49;21.33;;;16.80;;
29776;SDS011;16677;52.224;7.484;2023-03-01T04:56:20;19.80;;;15.37;;
29776;SDS011;16677;52.224;7.484;2023-03-01T04:58:49;35.13;;;28.02;;
29776;SDS011;16677;52.224;7.484;2023-03-01T05:01:20;32.60;;;25.43;;
29776;SDS011;16677;52.224;7.484;2023-03-01T05:03:50;20.27;;;16.67;;
29776;SDS011;16677;52.224;7.484;2023-03-01T05:06:18;20.80;;;16.07;;
29776;SDS011;16677;52.224;7.484;2023-03-01T05:08:46;23.23;;;15.40;;
29776;SDS011;16677;52.224;7.484;2023-03-01T05:11:14;19.30;;;15.87;;
29776;SDS011;16677;52.224;7.484;2023-03-01T05:13:50;20.40;;;16.23;;
29776;SDS011;16677;52.224;7.484;2023-03-01T05:16:34;20.43;;;15.73;;
29776;SDS011;16677;52.224;7.484;2023-03-01T05:19:04;23.10;;;16.50;;
29776;SDS011;16677;52.224;7.484;2023-03-01T05:21:38;21.97;;;16.53;;
29776;SDS011;16677;52.224;7.484;2023-03-01T05:24:25;19.83;;;16.03;;
29776;SDS011;16677;52.224;7.484;2023-03-01T05:29:52;26.40;;;17.57;;
29776;SDS011;16677;52.224;7.484;2023-03-01T05:32:20;27.33;;;17.77;;
29776;SDS011;16677;52.224;7.484;2023-03-01T05:34:47;20.80;;;16.17;;
29776;SDS011;16677;52.224;7.484;2023-03-01T05:37:14;27.33;;;19.40;;
29776;SDS011;16677;52.224;7.484;2023-03-01T05:39:42;20.47;;;16.30;;
29776;SDS011;16677;52.224;7.484;2023-03-01T05:42:11;21.03;;;15.17;;
29776;SDS011;16677;52.224;7.484;2023-03-01T05:44:39;22.97;;;17.13;;
29776;SDS011;16677;52.224;7.484;2023-03-01T05:47:06;20.70;;;16.80;;
29776;SDS011;16677;52.224;7.484;2023-03-01T05:49:36;26.40;;;16.67;;
29776;SDS011;16677;52.224;7.484;2023-03-01T05:52:05;28.63;;;17.40;;
29776;SDS011;16677;52.224;7.484;2023-03-01T05:54:35;21.97;;;16.23;;
29776;SDS011;16677;52.224;7.484;2023-03-01T05:57:05;22.53;;;17.23;;
29776;SDS011;16677;52.224;7.484;2023-03-01T05:59:33;25.07;;;17.33;;
29776;SDS011;16677;52.224;7.484;2023-03-01T06:02:01;26.17;;;19.53;;
29776;SDS011;16677;52.224;7.484;2023-03-01T06:04:28;26.37;;;21.47;;
29776;SDS011;16677;52.224;7.484;2023-03-01T06:06:55;32.27;;;22.83;;
29776;SDS011;16677;52.224;7.484;2023-03-01T06:09:22;21.50;;;17.47;;
29776;SDS011;16677;52.224;7.484;2023-03-01T06:11:49;22.43;;;18.37;;
29776;SDS011;16677;52.224;7.484;2023-03-01T06:14:17;21.83;;;16.17;;
29776;SDS011;16677;52.224;7.484;2023-03-01T06:16:53;25.63;;;19.33;;
29776;SDS011;16677;52.224;7.484;2023-03-01T06:27:11;21.53;;;16.03;;
29776;SDS011;16677;52.224;7.484;2023-03-01T06:29:38;19.10;;;15.87;;
29776;SDS011;16677;52.224;7.484;2023-03-01T06:32:07;22.27;;;16.53;;
29776;SDS011;16677;52.224;7.484;2023-03-01T06:34:35;21.70;;;16.77;;
29776;SDS011;16677;52.224;7.484;2023-03-01T06:37:02;19.73;;;15.60;;
29776;SDS011;16677;52.224;7.484;2023-03-01T06:39:31;22.63;;;17.40;;
29776;SDS011;16677;52.224;7.484;2023-03-01T06:41:59;19.97;;;15.90;;
29776;SDS011;16677;52.224;7.484;2023-03-01T06:44:26;34.00;;;21.60;;
29776;SDS011;16677;52.224;7.484;2023-03-01T06:46:54;38.60;;;26.43;;
29776;SDS011;16677;52.224;7.484;2023-03-01T06:49:21;54.00;;;33.67;;
29776;SDS011;16677;52.224;7.484;2023-03-01T06:51:48;44.67;;;29.10;;
29776;SDS011;16677;52.224;7.484;2023-03-01T06:54:15;31.23;;;22.27;;
29776;SDS011;16677;52.224;7.484;2023-03-01T06:56:46;31.40;;;22.63;;
29776;SDS011;16677;52.224;7.484;2023-03-01T06:59:13;27.00;;;21.73;;
29776;SDS011;16677;52.224;7.484;2023-03-01T07:01:41;33.07;;;24.27;;
29776;SDS011;16677;52.224;7.484;2023-03-01T07:04:10;33.23;;;25.40;;
29776;SDS011;16677;52.224;7.484;2023-03-01T07:06:37;30.73;;;23.30;;
29776;SDS011;16677;52.224;7.484;2023-03-01T07:09:05;29.57;;;22.33;;
29776;SDS011;16677;52.224;7.484;2023-03-01T07:11:32;32.93;;;21.53;;
29776;SDS011;16677;52.224;7.484;2023-03-01T07:13:59;31.47;;;21.83;;
29776;SDS011;16677;52.224;7.484;2023-03-01T07:16:27;28.90;;;20.37;;
29776;SDS011;16677;52.224;7.484;2023-03-01T07:18:54;28.07;;;18.63;;
29776;SDS011;16677;52.224;7.484;2023-03-01T07:21:21;24.43;;;18.37;;
29776;SDS011;16677;52.224;7.484;2023-03-01T07:23:48;24.20;;;18.97;;
29776;SDS011;16677;52.224;7.484;2023-03-01T07:26:15;24.80;;;19.10;;
29776;SDS011;16677;52.224;7.484;2023-03-01T07:28:42;21.10;;;15.90;;
29776;SDS011;16677;52.224;7.484;2023-03-01T07:31:10;24.37;;;17.20;;
29776;SDS011;16677;52.224;7.484;2023-03-01T07:33:37;21.37;;;15.70;;
29776;SDS011;16677;52.224;7.484;2023-03-01T07:36:04;22.27;;;16.50;;
29776;SDS011;16677;52.224;7.484;2023-03-01T07:38:32;19.63;;;15.37;;
29776;SDS011;16677;52.224;7.484;2023-03-01T07:41:00;22.57;;;16.37;;
29776;SDS011;16677;52.224;7.484;2023-03-01T07:43:29;22.40;;;16.33;;
29776;SDS011;16677;52.224;7.484;2023-03-01T07:46:00;23.07;;;16.63;;
29776;SDS011;16677;52.224;7.484;2023-03-01T07:48:29;20.13;;;15.70;;
29776;SDS011;16677;52.224;7.484;2023-03-01T07:51:00;21.07;;;14.70;;
29776;SDS011;16677;52.224;7.484;2023-03-01T07:53:30;22.20;;;15.67;;
29776;SDS011;16677;52.224;7.484;2023-03-01T07:56:02;16.70;;;13.97;;
29776;SDS011;16677;52.224;7.484;2023-03-01T07:58:38;21.23;;;15.60;;
29776;SDS011;16677;52.224;7.484;2023-03-01T08:03:40;14.77;;;13.25;;
29776;SDS011;16677;52.224;7.484;2023-03-01T08:06:08;15.45;;;13.18;;
29776;SDS011;16677;52.224;7.484;2023-03-01T08:08:38;15.45;;;12.82;;
29776;SDS011;16677;52.224;7.484;2023-03-01T08:11:05;14.03;;;12.17;;
29776;SDS011;16677;52.224;7.484;2023-03-01T08:13:34;13.75;;;12.32;;
29776;SDS011;16677;52.224;7.484;2023-03-01T08:16:05;13.43;;;11.73;;
29776;SDS011;16677;52.224;7.484;2023-03-01T08:18:35;12.05;;;10.82;;
29776;SDS011;16677;52.224;7.484;2023-03-01T08:21:08;13.50;;;10.77;;
29776;SDS011;16677;52.224;7.484;2023-03-01T08:23:39;11.50;;;10.30;;
29776;SDS011;16677;52.224;7.484;2023-03-01T08:26:08;10.45;;;9.32;;
29776;SDS011;16677;52.224;7.484;2023-03-01T08:28:45;10.52;;;9.30;;
29776;SDS011;16677;52.224;7.484;2023-03-01T08:31:23;10.43;;;9.05;;
29776;SDS011;16677;52.224;7.484;2023-03-01T08:33:55;10.00;;;9.00;;
29776;SDS011;16677;52.224;7.484;2023-03-01T08:36:27;10.05;;;9.05;;
29776;SDS011;16677;52.224;7.484;2023-03-01T08:39:06;9.68;;;8.68;;
29776;SDS011;16677;52.224;7.484;2023-03-01T08:41:35;9.80;;;8.90;;
29776;SDS011;16677;52.224;7.484;2023-03-01T08:44:03;10.38;;;9.00;;
29776;SDS011;16677;52.224;7.484;2023-03-01T08:46:31;9.90;;;8.90;;
29776;SDS011;16677;52.224;7.484;2023-03-01T08:49:07;10.10;;;9.07;;
29776;SDS011;16677;52.224;7.484;2023-03-01T08:51:43;9.82;;;8.82;;
29776;SDS011;16677;52.224;7.484;2023-03-01T08:54:29;9.47;;;8.47;;
29776;SDS011;16677;52.224;7.484;2023-03-01T08:56:56;9.30;;;8.00;;
29776;SDS011;16677;52.224;7.484;2023-03-01T08:59:25;10.48;;;8.85;;
29776;SDS011;16677;52.224;7.484;2023-03-01T09:01:53;10.75;;;8.40;;
29776;SDS011;16677;52.224;7.484;2023-03-01T09:04:20;9.40;;;8.40;;
29776;SDS011;16677;52.224;7.484;2023-03-01T09:06:48;8.13;;;7.00;;
29776;SDS011;16677;52.224;7.484;2023-03-01T09:09:16;7.10;;;6.40;;
29776;SDS011;16677;52.224;7.484;2023-03-01T09:11:44;7.40;;;6.60;;
29776;SDS011;16677;52.224;7.484;2023-03-01T09:14:13;6.93;;;6.28;;
29776;SDS011;16677;52.224;7.484;2023-03-01T09:16:40;7.43;;;6.63;;
29776;SDS011;16677;52.224;7.484;2023-03-01T09:19:08;8.17;;;5.37;;
29776;SDS011;16677;52.224;7.484;2023-03-01T09:21:35;6.90;;;6.20;;
29776;SDS011;16677;52.224;7.484;2023-03-01T09:24:08;7.17;;;5.10;;
29776;SDS011;16677;52.224;7.484;2023-03-01T09:26:40;7.50;;;5.70;;
29776;SDS011;16677;52.224;7.484;2023-03-01T13:17:49;4.60;;;3.90;;
29776;SDS011;16677;52.224;7.484;2023-03-01T13:33:51;5.50;;;4.80;;
29776;SDS011;16677;52.224;7.484;2023-03-01T13:49:40;5.43;;;4.60;;
29776;SDS011;16677;52.224;7.484;2023-03-01T13:55:21;4.87;;;4.37;;
29776;SDS011;16677;52.224;7.484;2023-03-01T13:58:02;5.50;;;4.70;;
29776;SDS011;16677;52.224;7.484;2023-03-01T14:00:41;5.37;;;4.57;;
29776;SDS011;16677;52.224;7.484;2023-03-01T14:08:41;4.70;;;4.20;;
29776;SDS011;16677;52.224;7.484;2023-03-01T14:20:17;5.23;;;4.60;;
29776;SDS011;16677;52.224;7.484;2023-03-01T14:23:01;6.70;;;4.72;;
29776;SDS011;16677;52.224;7.484;2023-03-01T14:25:38;5.10;;;4.60;;
29776;SDS011;16677;52.224;7.484;2023-03-01T14:28:27;4.60;;;3.63;;
29776;SDS011;16677;52.224;7.484;2023-03-01T14:31:00;7.53;;;4.20;;
29776;SDS011;16677;52.224;7.484;2023-03-01T14:33:35;6.00;;;3.87;;
29776;SDS011;16677;52.224;7.484;2023-03-01T14:36:04;4.90;;;3.60;;
29776;SDS011;16677;52.224;7.484;2023-03-01T14:38:44;6.37;;;4.30;;
29776;SDS011;16677;52.224;7.484;2023-03-01T14:43:11;5.27;;;3.90;;
29776;SDS011;16677;52.224;7.484;2023-03-01T14:45:46;6.20;;;4.83;;
29776;SDS011;16677;52.224;7.484;2023-03-01T14:48:16;4.77;;;3.93;;
29776;SDS011;16677;52.224;7.484;2023-03-01T14:50:44;6.47;;;3.70;;
29776;SDS011;16677;52.224;7.484;2023-03-01T14:53:16;4.00;;;3.60;;
29776;SDS011;16677;52.224;7.484;2023-03-01T14:55:54;5.67;;;3.73;;
29776;SDS011;16677;52.224;7.484;2023-03-01T14:58:28;5.43;;;4.00;;
29776;SDS011;16677;52.224;7.484;2023-03-01T15:01:02;5.53;;;3.67;;
29776;SDS011;16677;52.224;7.484;2023-03-01T15:03:35;5.03;;;3.37;;
29776;SDS011;16677;52.224;7.484;2023-03-01T15:06:06;4.60;;;3.50;;
29776;SDS011;16677;52.224;7.484;2023-03-01T15:08:34;3.93;;;3.53;;
29776;SDS011;16677;52.224;7.484;2023-03-01T15:11:04;4.30;;;3.47;;
29776;SDS011;16677;52.224;7.484;2023-03-01T15:13:51;4.03;;;3.60;;
29776;SDS011;16677;52.224;7.484;2023-03-01T15:16:27;4.83;;;3.97;;
29776;SDS011;16677;52.224;7.484;2023-03-01T15:19:04;5.27;;;3.60;;
29776;SDS011;16677;52.224;7.484;2023-03-01T15:21:34;4.77;;;3.80;;
29776;SDS011;16677;52.224;7.484;2023-03-01T15:26:59;7.63;;;4.23;;
29776;SDS011;16677;52.224;7.484;2023-03-01T15:29:33;4.40;;;3.40;;
29776;SDS011;16677;52.224;7.484;2023-03-01T15:32:59;5.27;;;3.67;;
29776;SDS011;16677;52.224;7.484;2023-03-01T15:34:57;5.33;;;4.07;;
29776;SDS011;16677;52.224;7.484;2023-03-01T15:40:17;4.37;;;3.20;;
29776;SDS011;16677;52.224;7.484;2023-03-01T15:42:59;4.20;;;3.23;;
29776;SDS011;16677;52.224;7.484;2023-03-01T15:46:05;4.20;;;3.40;;
29776;SDS011;16677;52.224;7.484;2023-03-01T15:48:37;4.40;;;3.93;;
29776;SDS011;16677;52.224;7.484;2023-03-01T15:51:09;6.73;;;3.90;;
29776;SDS011;16677;52.224;7.484;2023-03-01T15:53:41;4.80;;;4.00;;
29776;SDS011;16677;52.224;7.484;2023-03-01T15:56:20;4.93;;;3.80;;
29776;SDS011;16677;52.224;7.484;2023-03-01T15:58:47;4.93;;;3.07;;
29776;SDS011;16677;52.224;7.484;2023-03-01T16:01:15;6.17;;;3.77;;
29776;SDS011;16677;52.224;7.484;2023-03-01T16:03:43;5.55;;;4.32;;
29776;SDS011;16677;52.224;7.484;2023-03-01T16:06:11;5.38;;;4.25;;
29776;SDS011;16677;52.224;7.484;2023-03-01T16:08:39;5.53;;;4.15;;
29776;SDS011;16677;52.224;7.484;2023-03-01T16:11:13;5.40;;;4.27;;
29776;SDS011;16677;52.224;7.484;2023-03-01T16:13:44;5.28;;;4.38;;
29776;SDS011;16677;52.224;7.484;2023-03-01T16:16:12;6.20;;;4.60;;
29776;SDS011;16677;52.224;7.484;2023-03-01T16:18:43;5.10;;;4.35;;
29776;SDS011;16677;52.224;7.484;2023-03-01T16:21:16;5.30;;;4.30;;
29776;SDS011;16677;52.224;7.484;2023-03-01T16:23:51;4.88;;;4.25;;
29776;SDS011;16677;52.224;7.484;2023-03-01T16:28:47;5.03;;;4.53;;
29776;SDS011;16677;52.224;7.484;2023-03-01T16:31:18;5.72;;;4.70;;
29776;SDS011;16677;52.224;7.484;2023-03-01T16:33:46;6.07;;;5.05;;
29776;SDS011;16677;52.224;7.484;2023-03-01T16:36:17;6.18;;;5.28;;
29776;SDS011;16677;52.224;7.484;2023-03-01T16:38:45;6.13;;;5.45;;
29776;SDS011;16677;52.224;7.484;2023-03-01T16:41:15;6.20;;;5.60;;
29776;SDS011;16677;52.224;7.484;2023-03-01T16:43:44;5.33;;;4.77;;
29776;SDS011;16677;52.224;7.484;2023-03-01T16:46:14;5.43;;;4.78;;
29776;SDS011;16677;52.224;7.484;2023-03-01T16:48:43;5.78;;;4.50;;
29776;SDS011;16677;52.224;7.484;2023-03-01T16:51:12;5.05;;;4.22;;
29776;SDS011;16677;52.224;7.484;2023-03-01T16:53:39;5.30;;;4.68;;
29776;SDS011;16677;52.224;7.484;2023-03-01T16:56:08;5.25;;;4.13;;
29776;SDS011;16677;52.224;7.484;2023-03-01T16:58:39;5.18;;;4.68;;
29776;SDS011;16677;52.224;7.484;2023-03-01T17:01:14;6.05;;;4.75;;
29776;SDS011;16677;52.224;7.484;2023-03-01T17:03:46;5.43;;;4.60;;
29776;SDS011;16677;52.224;7.484;2023-03-01T17:06:17;5.27;;;4.70;;
29776;SDS011;16677;52.224;7.484;2023-03-01T17:08:46;5.27;;;4.67;;
29776;SDS011;16677;52.224;7.484;2023-03-01T17:16:12;5.60;;;4.13;;
29776;SDS011;16677;52.224;7.484;2023-03-01T17:18:42;5.83;;;4.67;;
29776;SDS011;16677;52.224;7.484;2023-03-01T17:21:10;5.83;;;4.73;;
29776;SDS011;16677;52.224;7.484;2023-03-01T17:23:39;6.20;;;5.23;;
29776;SDS011;16677;52.224;7.484;2023-03-01T20:31:19;17.20;;;12.87;;
29776;SDS011;16677;52.224;7.484;2023-03-01T20:33:56;19.17;;;13.10;;
29776;SDS011;16677;52.224;7.484;2023-03-01T20:36:25;18.10;;;12.73;;
29776;SDS011;16677;52.224;7.484;2023-03-01T20:38:53;16.63;;;12.10;;
29776;SDS011;16677;52.224;7.484;2023-03-01T20:41:21;16.90;;;11.33;;
29776;SDS011;16677;52.224;7.484;2023-03-01T20:43:54;15.67;;;11.77;;
29776;SDS011;16677;52.224;7.484;2023-03-01T20:46:24;19.30;;;12.10;;
29776;SDS011;16677;52.224;7.484;2023-03-01T20:48:52;14.33;;;11.80;;
29776;SDS011;16677;52.224;7.484;2023-03-01T20:51:19;16.13;;;12.80;;
29776;SDS011;16677;52.224;7.484;2023-03-01T20:53:47;18.20;;;13.30;;
29776;SDS011;16677;52.224;7.484;2023-03-01T20:56:15;15.97;;;12.57;;
29776;SDS011;16677;52.224;7.484;2023-03-01T20:58:43;15.95;;;14.32;;
29776;SDS011;16677;52.224;7.484;2023-03-01T21:01:16;17.35;;;15.55;;
29776;SDS011;16677;52.224;7.484;2023-03-01T21:03:50;16.70;;;15.00;;
29776;SDS011;16677;52.224;7.484;2023-03-01T21:06:17;16.25;;;14.55;;
29776;SDS011;16677;52.224;7.484;2023-03-01T21:08:44;17.33;;;15.57;;
29776;SDS011;16677;52.224;7.484;2023-03-01T21:11:11;20.45;;;17.25;;
29776;SDS011;16677;52.224;7.484;2023-03-01T21:13:38;25.20;;;19.75;;
29776;SDS011;16677;52.224;7.484;2023-03-01T21:16:08;28.30;;;21.30;;
29776;SDS011;16677;52.224;7.484;2023-03-01T21:18:42;20.85;;;17.88;;
29776;SDS011;16677;52.224;7.484;2023-03-01T21:21:11;23.38;;;19.02;;
29776;SDS011;16677;52.224;7.484;2023-03-01T21:23:40;24.13;;;19.77;;
29776;SDS011;16677;52.224;7.484;2023-03-01T21:26:09;26.67;;;20.33;;
29776;SDS011;16677;52.224;7.484;2023-03-01T21:28:41;23.73;;;19.77;;
29776;SDS011;16677;52.224;7.484;2023-03-01T21:31:10;21.43;;;18.33;;
29776;SDS011;16677;52.224;7.484;2023-03-01T21:33:44;24.50;;;19.40;;
29776;SDS011;16677;52.224;7.484;2023-03-01T21:36:14;22.45;;;18.92;;
29776;SDS011;16677;52.224;7.484;2023-03-01T21:38:43;25.48;;;22.25;;
29776;SDS011;16677;52.224;7.484;2023-03-01T21:43:45;17.73;;;14.60;;
29776;SDS011;16677;52.224;7.484;2023-03-01T21:46:15;20.17;;;17.70;;
29776;SDS011;16677;52.224;7.484;2023-03-01T21:48:46;21.33;;;18.15;;
29776;SDS011;16677;52.224;7.484;2023-03-01T21:51:15;20.60;;;18.38;;
29776;SDS011;16677;52.224;7.484;2023-03-01T21:53:45;21.05;;;18.50;;
29776;SDS011;16677;52.224;7.484;2023-03-01T21:56:17;22.60;;;19.25;;
29776;SDS011;16677;52.224;7.484;2023-03-01T21:58:47;20.48;;;17.45;;
29776;SDS011;16677;52.224;7.484;2023-03-01T22:01:16;17.13;;;15.32;;
29776;SDS011;16677;52.224;7.484;2023-03-01T22:04:05;15.55;;;13.95;;
29776;SDS011;16677;52.224;7.484;2023-03-01T22:06:50;16.05;;;14.48;;
29776;SDS011;16677;52.224;7.484;2023-03-01T22:09:20;15.73;;;14.03;;
29776;SDS011;16677;52.224;7.484;2023-03-01T22:11:53;15.10;;;13.50;;
29776;SDS011;16677;52.224;7.484;2023-03-01T22:14:28;16.60;;;14.90;;
29776;SDS011;16677;52.224;7.484;2023-03-01T22:16:57;16.55;;;14.75;;
29776;SDS011;16677;52.224;7.484;2023-03-01T22:19:24;16.17;;;14.52;;
29776;SDS011;16677;52.224;7.484;2023-03-01T22:21:54;16.20;;;14.50;;
29776;SDS011;16677;52.224;7.484;2023-03-01T22:24:22;16.38;;;14.50;;
29776;SDS011;16677;52.224;7.484;2023-03-01T22:26:51;17.85;;;15.82;;
29776;SDS011;16677;52.224;7.484;2023-03-01T22:29:23;17.80;;;15.93;;
29776;SDS011;16677;52.224;7.484;2023-03-01T22:31:53;17.85;;;15.90;;
29776;SDS011;16677;52.224;7.484;2023-03-01T22:34:21;17.20;;;15.40;;
29776;SDS011;16677;52.224;7.484;2023-03-01T22:36:49;18.02;;;15.52;;
29776;SDS011;16677;52.224;7.484;2023-03-01T22:39:17;17.70;;;15.75;;
29776;SDS011;16677;52.224;7.484;2023-03-01T22:41:47;17.88;;;15.88;;
29776;SDS011;16677;52.224;7.484;2023-03-01T22:44:16;17.30;;;15.43;;
29776;SDS011;16677;52.224;7.484;2023-03-01T22:46:47;18.90;;;16.90;;
29776;SDS011;16677;52.224;7.484;2023-03-01T22:49:14;18.27;;;16.27;;
29776;SDS011;16677;52.224;7.484;2023-03-01T22:51:43;20.52;;;18.33;;
29776;SDS011;16677;52.224;7.484;2023-03-01T22:54:12;19.77;;;16.88;;
29776;SDS011;16677;52.224;7.484;2023-03-01T22:56:41;18.23;;;16.25;;
29776;SDS011;16677;52.224;7.484;2023-03-01T22:59:09;19.58;;;17.05;;
29776;SDS011;16677;52.224;7.484;2023-03-01T23:01:40;20.55;;;17.95;;
29776;SDS011;16677;52.224;7.484;2023-03-01T23:04:12;19.17;;;17.03;;
29776;SDS011;16677;52.224;7.484;2023-03-01T23:06:43;19.63;;;17.48;;
29776;SDS011;16677;52.224;7.484;2023-03-01T23:09:25;20.73;;;17.85;;
29776;SDS011;16677;52.224;7.484;2023-03-01T23:11:58;20.73;;;18.15;;
29776;SDS011;16677;52.224;7.484;2023-03-01T23:14:28;22.25;;;19.20;;
29776;SDS011;16677;52.224;7.484;2023-03-01T23:16:57;22.65;;;19.58;;
29776;SDS011;16677;52.224;7.484;2023-03-01T23:19:28;22.10;;;19.70;;
29776;SDS011;16677;52.224;7.484;2023-03-01T23:21:57;22.00;;;19.70;;
29776;SDS011;16677;52.224;7.484;2023-03-01T23:24:24;23.13;;;20.63;;
29776;SDS011;16677;52.224;7.484;2023-03-01T23:26:58;23.80;;;21.23;;
29776;SDS011;16677;52.224;7.484;2023-03-01T23:29:27;26.43;;;22.10;;